sensor_id;sensor_type;location;lat;lon;timestamp;pressure;altitude;pressure_sealevel;temperature;humidity
49178;BME280;35016;55.674;37.468;2022-12-20T00:01:33;100122.44;;;-2.89;73.84
49178;BME280;35016;55.674;37.468;2022-12-20T00:04:02;100161.41;;;-2.90;74.22
49178;BME280;35016;55.674;37.468;2022-12-20T00:06:35;100142.47;;;-2.95;73.93
49178;BME280;35016;55.674;37.468;2022-12-20T00:09:05;100140.13;;;-2.98;73.95
49178;BME280;35016;55.674;37.468;2022-12-20T00:11:37;100145.66;;;-2.91;73.94
49178;BME280;35016;55.674;37.468;2022-12-20T00:14:05;100127.22;;;-2.93;74.31
49178;BME280;35016;55.674;37.468;2022-12-20T00:16:32;100151.94;;;-2.92;73.72
49178;BME280;35016;55.674;37.468;2022-12-20T00:19:04;100129.22;;;-2.95;74.21
49178;BME280;35016;55.674;37.468;2022-12-20T00:21:34;100136.69;;;-2.90;74.15
49178;BME280;35016;55.674;37.468;2022-12-20T00:24:02;100135.56;;;-2.88;74.61
49178;BME280;35016;55.674;37.468;2022-12-20T00:26:32;100119.66;;;-2.88;74.30
49178;BME280;35016;55.674;37.468;2022-12-20T00:29:00;100110.88;;;-2.88;74.28
49178;BME280;35016;55.674;37.468;2022-12-20T00:31:31;100130.94;;;-2.86;73.98
49178;BME280;35016;55.674;37.468;2022-12-20T00:34:02;100109.16;;;-2.89;74.39
49178;BME280;35016;55.674;37.468;2022-12-20T00:36:31;100125.16;;;-2.81;73.91
49178;BME280;35016;55.674;37.468;2022-12-20T00:38:59;100102.94;;;-2.80;73.76
49178;BME280;35016;55.674;37.468;2022-12-20T00:41:29;100107.72;;;-2.84;73.80
49178;BME280;35016;55.674;37.468;2022-12-20T00:44:01;100094.47;;;-2.84;73.61
49178;BME280;35016;55.674;37.468;2022-12-20T00:46:29;100096.31;;;-2.76;74.22
49178;BME280;35016;55.674;37.468;2022-12-20T00:48:58;100100.13;;;-2.78;73.68
49178;BME280;35016;55.674;37.468;2022-12-20T00:51:29;100099.78;;;-2.84;73.74
49178;BME280;35016;55.674;37.468;2022-12-20T00:53:57;100105.41;;;-2.87;74.20
49178;BME280;35016;55.674;37.468;2022-12-20T00:56:24;100089.63;;;-2.88;73.93
49178;BME280;35016;55.674;37.468;2022-12-20T00:58:57;100082.97;;;-2.92;74.27
49178;BME280;35016;55.674;37.468;2022-12-20T01:01:28;100062.53;;;-3.00;73.68
49178;BME280;35016;55.674;37.468;2022-12-20T01:03:57;100069.25;;;-2.88;73.76
49178;BME280;35016;55.674;37.468;2022-12-20T01:06:25;100090.00;;;-2.83;73.85
49178;BME280;35016;55.674;37.468;2022-12-20T01:08:56;100077.72;;;-2.84;73.76
49178;BME280;35016;55.674;37.468;2022-12-20T01:11:27;100056.25;;;-2.91;73.73
49178;BME280;35016;55.674;37.468;2022-12-20T01:13:58;100057.75;;;-2.96;74.05
49178;BME280;35016;55.674;37.468;2022-12-20T01:16:28;100064.72;;;-2.95;74.12
49178;BME280;35016;55.674;37.468;2022-12-20T01:18:55;100039.31;;;-2.98;73.90
49178;BME280;35016;55.674;37.468;2022-12-20T01:21:28;100079.94;;;-2.97;73.56
49178;BME280;35016;55.674;37.468;2022-12-20T01:23:56;100053.22;;;-3.04;73.77
49178;BME280;35016;55.674;37.468;2022-12-20T01:26:25;100047.56;;;-3.09;73.94
49178;BME280;35016;55.674;37.468;2022-12-20T01:28:55;100043.09;;;-3.08;73.75
49178;BME280;35016;55.674;37.468;2022-12-20T01:31:23;100022.13;;;-3.20;73.63
49178;BME280;35016;55.674;37.468;2022-12-20T01:33:51;100034.94;;;-3.15;74.04
49178;BME280;35016;55.674;37.468;2022-12-20T01:36:23;100036.63;;;-3.14;73.96
49178;BME280;35016;55.674;37.468;2022-12-20T01:38:58;100038.59;;;-3.16;73.34
49178;BME280;35016;55.674;37.468;2022-12-20T01:41:27;100036.72;;;-3.24;73.36
49178;BME280;35016;55.674;37.468;2022-12-20T01:44:03;100031.69;;;-3.35;73.64
49178;BME280;35016;55.674;37.468;2022-12-20T01:46:34;100036.47;;;-3.38;73.89
49178;BME280;35016;55.674;37.468;2022-12-20T01:49:10;100013.16;;;-3.53;73.61
49178;BME280;35016;55.674;37.468;2022-12-20T01:51:44;100021.28;;;-3.54;73.68
49178;BME280;35016;55.674;37.468;2022-12-20T01:54:19;100032.72;;;-3.54;73.74
49178;BME280;35016;55.674;37.468;2022-12-20T01:56:55;100025.75;;;-3.55;74.26
49178;BME280;35016;55.674;37.468;2022-12-20T01:59:25;100044.81;;;-3.51;74.10
49178;BME280;35016;55.674;37.468;2022-12-20T02:01:57;100050.78;;;-3.49;74.09
49178;BME280;35016;55.674;37.468;2022-12-20T02:04:25;100038.00;;;-3.54;74.01
49178;BME280;35016;55.674;37.468;2022-12-20T02:06:53;100018.91;;;-3.65;73.82
49178;BME280;35016;55.674;37.468;2022-12-20T02:09:23;100021.72;;;-3.67;73.95
49178;BME280;35016;55.674;37.468;2022-12-20T02:12:19;100017.75;;;-3.63;73.58
49178;BME280;35016;55.674;37.468;2022-12-20T02:15:04;100014.22;;;-3.71;73.45
49178;BME280;35016;55.674;37.468;2022-12-20T02:21:11;100027.31;;;-3.70;73.56
49178;BME280;35016;55.674;37.468;2022-12-20T02:34:44;99996.41;;;-4.05;72.95
49178;BME280;35016;55.674;37.468;2022-12-20T02:37:11;100000.88;;;-4.06;73.28
49178;BME280;35016;55.674;37.468;2022-12-20T02:39:40;99996.34;;;-4.13;73.53
49178;BME280;35016;55.674;37.468;2022-12-20T02:42:14;99992.56;;;-4.11;72.98
49178;BME280;35016;55.674;37.468;2022-12-20T02:44:50;99993.69;;;-4.13;72.86
49178;BME280;35016;55.674;37.468;2022-12-20T02:47:41;99990.53;;;-4.17;73.15
49178;BME280;35016;55.674;37.468;2022-12-20T02:50:11;99966.94;;;-4.28;73.25
49178;BME280;35016;55.674;37.468;2022-12-20T02:52:38;99976.38;;;-4.25;73.77
49178;BME280;35016;55.674;37.468;2022-12-20T02:55:10;99968.00;;;-4.39;73.50
49178;BME280;35016;55.674;37.468;2022-12-20T02:57:55;99970.94;;;-4.42;73.31
49178;BME280;35016;55.674;37.468;2022-12-20T03:00:36;99962.56;;;-4.55;73.22
49178;BME280;35016;55.674;37.468;2022-12-20T03:03:05;99968.16;;;-4.58;73.13
49178;BME280;35016;55.674;37.468;2022-12-20T03:06:00;99958.09;;;-4.72;73.12
49178;BME280;35016;55.674;37.468;2022-12-20T03:08:29;99956.41;;;-4.73;73.64
49178;BME280;35016;55.674;37.468;2022-12-20T03:10:56;99960.03;;;-4.74;73.43
49178;BME280;35016;55.674;37.468;2022-12-20T03:13:24;99959.06;;;-4.73;73.83
49178;BME280;35016;55.674;37.468;2022-12-20T03:16:02;99956.56;;;-4.75;73.50
49178;BME280;35016;55.674;37.468;2022-12-20T03:18:31;99944.47;;;-4.77;73.02
49178;BME280;35016;55.674;37.468;2022-12-20T03:21:00;99948.34;;;-4.72;73.36
49178;BME280;35016;55.674;37.468;2022-12-20T03:23:27;99927.78;;;-4.78;73.53
49178;BME280;35016;55.674;37.468;2022-12-20T03:25:55;99941.97;;;-4.79;73.17
49178;BME280;35016;55.674;37.468;2022-12-20T03:28:33;99926.56;;;-4.83;73.00
49178;BME280;35016;55.674;37.468;2022-12-20T03:31:04;99927.56;;;-4.84;73.19
49178;BME280;35016;55.674;37.468;2022-12-20T03:33:41;99929.75;;;-4.80;73.51
49178;BME280;35016;55.674;37.468;2022-12-20T03:36:11;99918.41;;;-4.90;73.23
49178;BME280;35016;55.674;37.468;2022-12-20T03:38:41;99917.69;;;-4.92;73.15
49178;BME280;35016;55.674;37.468;2022-12-20T03:41:11;99923.59;;;-4.98;73.04
49178;BME280;35016;55.674;37.468;2022-12-20T03:43:38;99917.31;;;-4.97;73.21
49178;BME280;35016;55.674;37.468;2022-12-20T03:46:05;99927.38;;;-5.01;73.36
49178;BME280;35016;55.674;37.468;2022-12-20T03:48:36;99894.75;;;-5.09;72.68
49178;BME280;35016;55.674;37.468;2022-12-20T03:51:04;99910.44;;;-5.08;73.23
49178;BME280;35016;55.674;37.468;2022-12-20T03:53:34;99900.63;;;-5.15;73.05
49178;BME280;35016;55.674;37.468;2022-12-20T03:56:04;99880.34;;;-5.24;72.65
49178;BME280;35016;55.674;37.468;2022-12-20T03:58:31;99882.31;;;-5.26;72.79
49178;BME280;35016;55.674;37.468;2022-12-20T04:00:58;99874.31;;;-5.35;72.86
49178;BME280;35016;55.674;37.468;2022-12-20T04:03:38;99874.00;;;-5.32;72.88
49178;BME280;35016;55.674;37.468;2022-12-20T04:06:31;99881.94;;;-5.32;72.21
49178;BME280;35016;55.674;37.468;2022-12-20T04:08:59;99866.97;;;-5.41;72.77
49178;BME280;35016;55.674;37.468;2022-12-20T04:11:31;99867.22;;;-5.34;72.80
49178;BME280;35016;55.674;37.468;2022-12-20T04:14:04;99841.53;;;-5.42;72.58
49178;BME280;35016;55.674;37.468;2022-12-20T04:16:32;99831.56;;;-5.48;72.55
49178;BME280;35016;55.674;37.468;2022-12-20T04:19:01;99840.41;;;-5.39;72.38
49178;BME280;35016;55.674;37.468;2022-12-20T04:21:34;99838.44;;;-5.37;72.30
49178;BME280;35016;55.674;37.468;2022-12-20T04:24:04;99841.09;;;-5.37;72.59
49178;BME280;35016;55.674;37.468;2022-12-20T04:26:57;99839.56;;;-5.40;72.27
49178;BME280;35016;55.674;37.468;2022-12-20T04:29:24;99843.19;;;-5.41;72.22
49178;BME280;35016;55.674;37.468;2022-12-20T04:31:52;99826.28;;;-5.48;72.43
49178;BME280;35016;55.674;37.468;2022-12-20T04:34:21;99836.28;;;-5.51;72.08
49178;BME280;35016;55.674;37.468;2022-12-20T04:36:48;99836.56;;;-5.45;71.91
49178;BME280;35016;55.674;37.468;2022-12-20T04:39:28;99846.97;;;-5.43;71.95
49178;BME280;35016;55.674;37.468;2022-12-20T04:42:10;99843.66;;;-5.45;72.12
49178;BME280;35016;55.674;37.468;2022-12-20T04:44:39;99835.47;;;-5.52;71.43
49178;BME280;35016;55.674;37.468;2022-12-20T04:47:08;99838.25;;;-5.53;71.48
49178;BME280;35016;55.674;37.468;2022-12-20T04:49:40;99825.94;;;-5.63;71.10
49178;BME280;35016;55.674;37.468;2022-12-20T04:52:08;99830.25;;;-5.62;71.54
49178;BME280;35016;55.674;37.468;2022-12-20T04:55:10;99814.63;;;-5.82;71.44
49178;BME280;35016;55.674;37.468;2022-12-20T04:57:40;99827.91;;;-5.65;71.29
49178;BME280;35016;55.674;37.468;2022-12-20T05:00:13;99818.22;;;-5.74;71.32
49178;BME280;35016;55.674;37.468;2022-12-20T05:02:49;99814.91;;;-5.76;71.74
49178;BME280;35016;55.674;37.468;2022-12-20T05:05:26;99826.84;;;-5.72;71.51
49178;BME280;35016;55.674;37.468;2022-12-20T05:07:57;99823.50;;;-5.74;71.43
49178;BME280;35016;55.674;37.468;2022-12-20T05:10:27;99804.75;;;-5.80;71.27
49178;BME280;35016;55.674;37.468;2022-12-20T05:12:58;99795.47;;;-5.84;71.35
49178;BME280;35016;55.674;37.468;2022-12-20T05:15:39;99799.31;;;-5.79;71.29
49178;BME280;35016;55.674;37.468;2022-12-20T05:18:06;99811.59;;;-5.78;71.15
49178;BME280;35016;55.674;37.468;2022-12-20T05:20:49;99806.97;;;-5.76;71.21
49178;BME280;35016;55.674;37.468;2022-12-20T05:23:39;99795.31;;;-5.83;70.79
49178;BME280;35016;55.674;37.468;2022-12-20T05:26:33;99808.78;;;-5.76;71.05
49178;BME280;35016;55.674;37.468;2022-12-20T05:29:01;99805.03;;;-5.74;70.79
49178;BME280;35016;55.674;37.468;2022-12-20T05:31:28;99822.53;;;-5.73;71.15
49178;BME280;35016;55.674;37.468;2022-12-20T05:33:56;99782.81;;;-5.81;71.12
49178;BME280;35016;55.674;37.468;2022-12-20T05:36:29;99798.09;;;-5.75;70.98
49178;BME280;35016;55.674;37.468;2022-12-20T05:38:58;99776.13;;;-5.75;70.98
49178;BME280;35016;55.674;37.468;2022-12-20T05:41:33;99775.97;;;-5.74;70.92
49178;BME280;35016;55.674;37.468;2022-12-20T05:44:02;99791.00;;;-5.74;71.05
49178;BME280;35016;55.674;37.468;2022-12-20T05:46:32;99760.69;;;-5.80;70.83
49178;BME280;35016;55.674;37.468;2022-12-20T05:49:03;99765.00;;;-5.79;70.48
49178;BME280;35016;55.674;37.468;2022-12-20T05:51:36;99762.13;;;-5.85;70.44
49178;BME280;35016;55.674;37.468;2022-12-20T05:54:26;99762.97;;;-5.85;70.66
49178;BME280;35016;55.674;37.468;2022-12-20T05:57:12;99772.69;;;-5.85;70.71
49178;BME280;35016;55.674;37.468;2022-12-20T05:59:41;99761.44;;;-5.87;70.80
49178;BME280;35016;55.674;37.468;2022-12-20T06:02:26;99763.09;;;-5.86;70.36
49178;BME280;35016;55.674;37.468;2022-12-20T06:05:04;99765.06;;;-5.88;70.47
49178;BME280;35016;55.674;37.468;2022-12-20T06:07:34;99762.75;;;-5.91;70.69
49178;BME280;35016;55.674;37.468;2022-12-20T06:10:10;99745.31;;;-6.02;70.62
49178;BME280;35016;55.674;37.468;2022-12-20T06:12:51;99747.97;;;-6.02;70.39
49178;BME280;35016;55.674;37.468;2022-12-20T06:15:20;99744.91;;;-6.07;70.49
49178;BME280;35016;55.674;37.468;2022-12-20T06:17:47;99741.44;;;-6.08;70.32
49178;BME280;35016;55.674;37.468;2022-12-20T06:20:15;99736.31;;;-6.09;70.64
49178;BME280;35016;55.674;37.468;2022-12-20T06:22:45;99739.09;;;-6.11;70.45
49178;BME280;35016;55.674;37.468;2022-12-20T06:25:14;99739.91;;;-6.10;70.48
49178;BME280;35016;55.674;37.468;2022-12-20T06:27:42;99736.75;;;-6.14;70.43
49178;BME280;35016;55.674;37.468;2022-12-20T06:30:16;99738.25;;;-6.11;70.72
49178;BME280;35016;55.674;37.468;2022-12-20T06:33:01;99745.34;;;-6.12;70.63
49178;BME280;35016;55.674;37.468;2022-12-20T06:35:28;99732.84;;;-6.10;70.42
49178;BME280;35016;55.674;37.468;2022-12-20T06:37:56;99741.19;;;-6.14;70.88
49178;BME280;35016;55.674;37.468;2022-12-20T06:40:23;99721.38;;;-6.18;70.15
49178;BME280;35016;55.674;37.468;2022-12-20T06:42:50;99717.22;;;-6.21;70.62
49178;BME280;35016;55.674;37.468;2022-12-20T06:45:22;99708.31;;;-6.20;70.68
49178;BME280;35016;55.674;37.468;2022-12-20T06:47:51;99719.25;;;-6.15;70.39
49178;BME280;35016;55.674;37.468;2022-12-20T06:50:20;99705.38;;;-6.17;70.44
49178;BME280;35016;55.674;37.468;2022-12-20T06:52:48;99694.59;;;-6.23;70.19
49178;BME280;35016;55.674;37.468;2022-12-20T06:55:18;99693.09;;;-6.26;70.33
49178;BME280;35016;55.674;37.468;2022-12-20T06:57:48;99688.94;;;-6.29;70.60
49178;BME280;35016;55.674;37.468;2022-12-20T07:00:16;99692.63;;;-6.21;70.31
49178;BME280;35016;55.674;37.468;2022-12-20T07:02:43;99689.00;;;-6.20;70.19
49178;BME280;35016;55.674;37.468;2022-12-20T07:05:11;99673.47;;;-6.23;70.30
49178;BME280;35016;55.674;37.468;2022-12-20T07:07:38;99676.28;;;-6.25;69.99
49178;BME280;35016;55.674;37.468;2022-12-20T07:10:11;99660.78;;;-6.38;70.26
49178;BME280;35016;55.674;37.468;2022-12-20T07:12:41;99648.97;;;-6.34;70.52
49178;BME280;35016;55.674;37.468;2022-12-20T07:15:26;99644.13;;;-6.38;70.00
49178;BME280;35016;55.674;37.468;2022-12-20T07:17:55;99644.22;;;-6.30;70.05
49178;BME280;35016;55.674;37.468;2022-12-20T07:20:25;99633.00;;;-6.32;70.27
49178;BME280;35016;55.674;37.468;2022-12-20T07:22:53;99625.84;;;-6.22;69.84
49178;BME280;35016;55.674;37.468;2022-12-20T07:25:25;99647.47;;;-6.18;70.05
49178;BME280;35016;55.674;37.468;2022-12-20T07:27:56;99635.75;;;-6.06;70.12
49178;BME280;35016;55.674;37.468;2022-12-20T07:30:28;99615.13;;;-6.20;69.93
49178;BME280;35016;55.674;37.468;2022-12-20T07:32:55;99614.53;;;-5.97;69.60
49178;BME280;35016;55.674;37.468;2022-12-20T07:35:23;99606.16;;;-5.92;69.38
49178;BME280;35016;55.674;37.468;2022-12-20T07:37:51;99609.66;;;-5.83;69.57
49178;BME280;35016;55.674;37.468;2022-12-20T07:40:19;99591.88;;;-5.81;69.53
49178;BME280;35016;55.674;37.468;2022-12-20T07:42:47;99593.09;;;-5.76;69.30
49178;BME280;35016;55.674;37.468;2022-12-20T07:45:17;99599.03;;;-5.74;69.11
49178;BME280;35016;55.674;37.468;2022-12-20T07:47:46;99586.66;;;-5.73;69.02
49178;BME280;35016;55.674;37.468;2022-12-20T07:50:15;99582.22;;;-5.73;69.05
49178;BME280;35016;55.674;37.468;2022-12-20T07:52:43;99575.28;;;-5.74;68.71
49178;BME280;35016;55.674;37.468;2022-12-20T07:55:13;99544.41;;;-5.73;69.06
49178;BME280;35016;55.674;37.468;2022-12-20T07:57:48;99561.31;;;-5.66;68.69
49178;BME280;35016;55.674;37.468;2022-12-20T08:00:17;99562.91;;;-5.73;68.81
49178;BME280;35016;55.674;37.468;2022-12-20T08:02:54;99543.13;;;-5.69;68.05
49178;BME280;35016;55.674;37.468;2022-12-20T08:05:25;99534.00;;;-5.75;68.46
49178;BME280;35016;55.674;37.468;2022-12-20T08:07:57;99525.25;;;-5.75;68.33
49178;BME280;35016;55.674;37.468;2022-12-20T08:10:28;99511.16;;;-5.84;68.62
49178;BME280;35016;55.674;37.468;2022-12-20T08:12:59;99497.56;;;-5.97;68.63
49178;BME280;35016;55.674;37.468;2022-12-20T08:15:27;99511.97;;;-5.91;68.55
49178;BME280;35016;55.674;37.468;2022-12-20T08:17:55;99494.72;;;-6.04;68.79
49178;BME280;35016;55.674;37.468;2022-12-20T08:20:23;99500.84;;;-6.03;68.83
49178;BME280;35016;55.674;37.468;2022-12-20T08:22:52;99479.19;;;-6.07;68.54
49178;BME280;35016;55.674;37.468;2022-12-20T08:25:20;99501.03;;;-5.97;68.64
49178;BME280;35016;55.674;37.468;2022-12-20T08:27:56;99492.81;;;-5.94;68.70
49178;BME280;35016;55.674;37.468;2022-12-20T08:30:29;99490.13;;;-6.02;68.51
49178;BME280;35016;55.674;37.468;2022-12-20T08:32:57;99484.53;;;-5.99;68.44
49178;BME280;35016;55.674;37.468;2022-12-20T08:35:24;99499.91;;;-5.94;68.88
49178;BME280;35016;55.674;37.468;2022-12-20T08:37:53;99491.97;;;-5.94;68.42
49178;BME280;35016;55.674;37.468;2022-12-20T08:40:20;99481.88;;;-5.99;68.26
49178;BME280;35016;55.674;37.468;2022-12-20T08:42:47;99474.66;;;-5.97;68.88
49178;BME280;35016;55.674;37.468;2022-12-20T08:45:14;99457.78;;;-6.04;68.83
49178;BME280;35016;55.674;37.468;2022-12-20T08:47:47;99488.97;;;-5.73;68.69
49178;BME280;35016;55.674;37.468;2022-12-20T08:50:20;99488.50;;;-5.69;68.50
49178;BME280;35016;55.674;37.468;2022-12-20T08:52:47;99468.16;;;-5.76;68.35
49178;BME280;35016;55.674;37.468;2022-12-20T08:55:15;99449.50;;;-5.75;68.36
49178;BME280;35016;55.674;37.468;2022-12-20T08:57:42;99441.06;;;-5.78;68.08
49178;BME280;35016;55.674;37.468;2022-12-20T09:00:10;99455.50;;;-5.65;68.15
49178;BME280;35016;55.674;37.468;2022-12-20T09:02:43;99444.47;;;-5.60;67.88
49178;BME280;35016;55.674;37.468;2022-12-20T09:05:21;99466.16;;;-5.48;67.87
49178;BME280;35016;55.674;37.468;2022-12-20T09:08:07;99410.41;;;-5.71;67.37
49178;BME280;35016;55.674;37.468;2022-12-20T09:10:37;99416.56;;;-5.63;67.74
49178;BME280;35016;55.674;37.468;2022-12-20T09:13:24;99395.97;;;-5.51;68.08
49178;BME280;35016;55.674;37.468;2022-12-20T09:15:59;99432.50;;;-5.38;67.48
49178;BME280;35016;55.674;37.468;2022-12-20T09:18:28;99447.56;;;-5.31;68.05
49178;BME280;35016;55.674;37.468;2022-12-20T09:21:03;99425.09;;;-5.35;67.31
49178;BME280;35016;55.674;37.468;2022-12-20T09:23:34;99410.09;;;-5.26;67.94
49178;BME280;35016;55.674;37.468;2022-12-20T09:26:07;99419.06;;;-5.19;67.79
49178;BME280;35016;55.674;37.468;2022-12-20T09:28:40;99398.75;;;-5.18;67.56
49178;BME280;35016;55.674;37.468;2022-12-20T09:31:10;99385.34;;;-5.17;67.22
49178;BME280;35016;55.674;37.468;2022-12-20T09:33:38;99395.94;;;-5.17;67.12
49178;BME280;35016;55.674;37.468;2022-12-20T09:36:05;99383.38;;;-5.15;67.72
49178;BME280;35016;55.674;37.468;2022-12-20T09:38:36;99377.59;;;-5.18;67.33
49178;BME280;35016;55.674;37.468;2022-12-20T09:41:07;99378.75;;;-5.13;67.04
49178;BME280;35016;55.674;37.468;2022-12-20T09:43:35;99364.06;;;-5.15;67.14
49178;BME280;35016;55.674;37.468;2022-12-20T09:46:05;99368.03;;;-5.11;67.06
49178;BME280;35016;55.674;37.468;2022-12-20T09:48:39;99354.31;;;-5.07;66.91
49178;BME280;35016;55.674;37.468;2022-12-20T09:56:46;99342.59;;;-5.04;65.97
49178;BME280;35016;55.674;37.468;2022-12-20T09:59:18;99338.78;;;-5.10;67.68
49178;BME280;35016;55.674;37.468;2022-12-20T10:01:48;99350.84;;;-5.15;67.17
49178;BME280;35016;55.674;37.468;2022-12-20T10:04:27;99327.50;;;-5.28;67.23
49178;BME280;35016;55.674;37.468;2022-12-20T10:15:18;99297.31;;;-5.01;66.60
49178;BME280;35016;55.674;37.468;2022-12-20T10:26:17;99275.66;;;-4.72;67.31
49178;BME280;35016;55.674;37.468;2022-12-20T10:28:44;99288.19;;;-4.66;66.34
49178;BME280;35016;55.674;37.468;2022-12-20T10:31:24;99282.91;;;-4.66;66.62
49178;BME280;35016;55.674;37.468;2022-12-20T10:33:52;99288.53;;;-4.53;66.72
49178;BME280;35016;55.674;37.468;2022-12-20T10:36:34;99272.66;;;-4.53;66.19
49178;BME280;35016;55.674;37.468;2022-12-20T10:39:06;99275.59;;;-4.40;66.27
49178;BME280;35016;55.674;37.468;2022-12-20T10:46:57;99276.44;;;-4.47;65.85
49178;BME280;35016;55.674;37.468;2022-12-20T10:49:35;99264.88;;;-4.54;66.07
49178;BME280;35016;55.674;37.468;2022-12-20T10:54:36;99257.59;;;-4.52;66.75
49178;BME280;35016;55.674;37.468;2022-12-20T10:57:25;99245.16;;;-4.44;66.16
49178;BME280;35016;55.674;37.468;2022-12-20T11:00:00;99245.97;;;-4.35;66.83
49178;BME280;35016;55.674;37.468;2022-12-20T11:02:36;99226.97;;;-4.39;66.88
49178;BME280;35016;55.674;37.468;2022-12-20T11:10:42;99257.72;;;-3.90;66.88
49178;BME280;35016;55.674;37.468;2022-12-20T11:13:23;99239.47;;;-3.85;65.65
49178;BME280;35016;55.674;37.468;2022-12-20T11:15:55;99251.84;;;-3.78;66.13
49178;BME280;35016;55.674;37.468;2022-12-20T11:24:12;99251.44;;;-3.89;65.97
49178;BME280;35016;55.674;37.468;2022-12-20T11:27:00;99233.94;;;-4.07;65.07
49178;BME280;35016;55.674;37.468;2022-12-20T11:37:37;99240.09;;;-4.70;65.88
49178;BME280;35016;55.674;37.468;2022-12-20T11:40:29;99234.53;;;-4.83;65.29
49178;BME280;35016;55.674;37.468;2022-12-20T11:43:06;99229.88;;;-4.97;66.59
49178;BME280;35016;55.674;37.468;2022-12-20T11:48:59;99220.31;;;-5.22;66.38
49178;BME280;35016;55.674;37.468;2022-12-20T11:57:01;99199.34;;;-5.56;66.94
49178;BME280;35016;55.674;37.468;2022-12-20T12:00:00;99207.25;;;-5.56;66.18
49178;BME280;35016;55.674;37.468;2022-12-20T12:02:54;99206.28;;;-5.64;66.68
49178;BME280;35016;55.674;37.468;2022-12-20T12:05:45;99196.03;;;-5.67;66.55
49178;BME280;35016;55.674;37.468;2022-12-20T12:08:21;99189.94;;;-5.75;66.90
49178;BME280;35016;55.674;37.468;2022-12-20T12:10:57;99202.75;;;-5.80;66.74
49178;BME280;35016;55.674;37.468;2022-12-20T12:13:30;99208.22;;;-5.82;66.96
49178;BME280;35016;55.674;37.468;2022-12-20T12:16:15;99204.06;;;-5.84;66.54
49178;BME280;35016;55.674;37.468;2022-12-20T12:18:44;99195.03;;;-5.98;66.87
49178;BME280;35016;55.674;37.468;2022-12-20T12:21:30;99205.75;;;-5.91;66.67
49178;BME280;35016;55.674;37.468;2022-12-20T12:24:43;99204.09;;;-6.01;66.29
49178;BME280;35016;55.674;37.468;2022-12-20T12:27:26;99168.41;;;-6.21;67.02
49178;BME280;35016;55.674;37.468;2022-12-20T12:29:57;99187.72;;;-6.12;67.24
49178;BME280;35016;55.674;37.468;2022-12-20T12:32:35;99201.78;;;-6.04;66.61
49178;BME280;35016;55.674;37.468;2022-12-20T12:38:13;99190.00;;;-6.26;67.35
49178;BME280;35016;55.674;37.468;2022-12-20T12:46:12;99198.59;;;-6.15;67.32
49178;BME280;35016;55.674;37.468;2022-12-20T12:49:07;99204.75;;;-6.07;66.92
49178;BME280;35016;55.674;37.468;2022-12-20T12:51:41;99207.50;;;-6.08;67.14
49178;BME280;35016;55.674;37.468;2022-12-20T12:56:50;99201.41;;;-6.09;67.32
49178;BME280;35016;55.674;37.468;2022-12-20T13:12:59;99177.97;;;-6.12;67.46
49178;BME280;35016;55.674;37.468;2022-12-20T13:20:38;99182.31;;;-6.03;67.34
49178;BME280;35016;55.674;37.468;2022-12-20T13:25:39;99180.66;;;-6.04;67.61
49178;BME280;35016;55.674;37.468;2022-12-20T13:41:38;99179.00;;;-6.05;67.60
49178;BME280;35016;55.674;37.468;2022-12-20T13:49:42;99177.19;;;-6.04;67.26
49178;BME280;35016;55.674;37.468;2022-12-20T13:52:15;99159.50;;;-6.12;68.13
49178;BME280;35016;55.674;37.468;2022-12-20T13:54:49;99193.69;;;-6.02;67.66
49178;BME280;35016;55.674;37.468;2022-12-20T13:57:28;99162.31;;;-6.13;67.30
49178;BME280;35016;55.674;37.468;2022-12-20T14:00:02;99164.78;;;-6.20;67.44
49178;BME280;35016;55.674;37.468;2022-12-20T14:02:39;99182.16;;;-6.01;67.85
49178;BME280;35016;55.674;37.468;2022-12-20T14:05:15;99191.22;;;-6.04;67.64
49178;BME280;35016;55.674;37.468;2022-12-20T14:07:58;99178.34;;;-5.99;67.52
49178;BME280;35016;55.674;37.468;2022-12-20T14:10:30;99161.66;;;-6.07;68.04
49178;BME280;35016;55.674;37.468;2022-12-20T14:12:58;99166.09;;;-6.08;67.76
49178;BME280;35016;55.674;37.468;2022-12-20T14:15:32;99167.78;;;-6.07;67.95
49178;BME280;35016;55.674;37.468;2022-12-20T14:20:43;99173.69;;;-6.13;67.76
49178;BME280;35016;55.674;37.468;2022-12-20T14:23:18;99165.09;;;-6.15;67.84
49178;BME280;35016;55.674;37.468;2022-12-20T14:25:54;99183.09;;;-6.10;68.16
49178;BME280;35016;55.674;37.468;2022-12-20T14:31:02;99157.34;;;-6.16;67.95
49178;BME280;35016;55.674;37.468;2022-12-20T14:33:36;99155.03;;;-6.19;67.72
49178;BME280;35016;55.674;37.468;2022-12-20T14:36:19;99161.47;;;-6.22;67.61
49178;BME280;35016;55.674;37.468;2022-12-20T14:38:51;99159.63;;;-6.30;67.79
49178;BME280;35016;55.674;37.468;2022-12-20T14:44:13;99149.03;;;-6.46;67.87
49178;BME280;35016;55.674;37.468;2022-12-20T14:46:51;99155.13;;;-6.45;67.90
49178;BME280;35016;55.674;37.468;2022-12-20T14:51:50;99147.84;;;-6.60;67.84
49178;BME280;35016;55.674;37.468;2022-12-20T14:54:26;99156.41;;;-6.58;68.32
49178;BME280;35016;55.674;37.468;2022-12-20T15:05:41;99145.78;;;-6.74;68.19
49178;BME280;35016;55.674;37.468;2022-12-20T15:13:19;99148.06;;;-6.79;68.15
49178;BME280;35016;55.674;37.468;2022-12-20T15:15:46;99145.06;;;-6.84;68.67
49178;BME280;35016;55.674;37.468;2022-12-20T15:18:17;99150.03;;;-6.81;68.62
49178;BME280;35016;55.674;37.468;2022-12-20T15:21:21;99190.22;;;-6.79;68.87
49178;BME280;35016;55.674;37.468;2022-12-20T15:23:49;99148.50;;;-6.92;68.47
49178;BME280;35016;55.674;37.468;2022-12-20T15:26:20;99161.56;;;-6.82;68.19
49178;BME280;35016;55.674;37.468;2022-12-20T15:28:48;99166.16;;;-6.84;68.43
49178;BME280;35016;55.674;37.468;2022-12-20T15:31:19;99159.88;;;-6.91;68.95
49178;BME280;35016;55.674;37.468;2022-12-20T15:33:56;99161.53;;;-6.90;68.45
49178;BME280;35016;55.674;37.468;2022-12-20T15:36:27;99174.84;;;-6.92;68.79
49178;BME280;35016;55.674;37.468;2022-12-20T15:38:56;99167.56;;;-6.98;68.69
49178;BME280;35016;55.674;37.468;2022-12-20T15:41:43;99165.91;;;-6.99;68.60
49178;BME280;35016;55.674;37.468;2022-12-20T15:44:24;99169.34;;;-6.98;68.74
49178;BME280;35016;55.674;37.468;2022-12-20T15:46:54;99162.25;;;-7.06;69.14